sensor_id;sensor_type;location;lat;lon;timestamp;P1;durP1;ratioP1;P2;durP2;ratioP2
29200;SDS011;16244;51.956;12.980;2023-12-04T00:01:58;19.03;;;8.60;;
29200;SDS011;16244;51.956;12.980;2023-12-04T00:04:27;14.67;;;8.53;;
29200;SDS011;16244;51.956;12.980;2023-12-04T00:06:55;20.33;;;8.60;;
29200;SDS011;16244;51.956;12.980;2023-12-04T00:09:22;24.77;;;9.83;;
29200;SDS011;16244;51.956;12.980;2023-12-04T00:11:50;16.57;;;8.03;;
29200;SDS011;16244;51.956;12.980;2023-12-04T00:14:18;17.50;;;8.87;;
29200;SDS011;16244;51.956;12.980;2023-12-04T00:16:45;15.43;;;7.80;;
29200;SDS011;16244;51.956;12.980;2023-12-04T00:19:13;16.43;;;7.60;;
29200;SDS011;16244;51.956;12.980;2023-12-04T00:21:42;14.80;;;8.07;;
29200;SDS011;16244;51.956;12.980;2023-12-04T00:24:09;16.83;;;8.67;;
29200;SDS011;16244;51.956;12.980;2023-12-04T00:26:36;14.30;;;8.80;;
29200;SDS011;16244;51.956;12.980;2023-12-04T00:29:04;13.40;;;8.23;;
29200;SDS011;16244;51.956;12.980;2023-12-04T00:31:31;16.70;;;8.60;;
29200;SDS011;16244;51.956;12.980;2023-12-04T00:33:59;16.97;;;9.37;;
29200;SDS011;16244;51.956;12.980;2023-12-04T00:36:26;17.13;;;8.23;;
29200;SDS011;16244;51.956;12.980;2023-12-04T00:38:55;18.00;;;9.20;;
29200;SDS011;16244;51.956;12.980;2023-12-04T00:41:22;14.83;;;8.10;;
29200;SDS011;16244;51.956;12.980;2023-12-04T00:43:50;14.13;;;7.80;;
29200;SDS011;16244;51.956;12.980;2023-12-04T00:46:17;15.77;;;8.10;;
29200;SDS011;16244;51.956;12.980;2023-12-04T00:48:45;15.20;;;8.10;;
29200;SDS011;16244;51.956;12.980;2023-12-04T00:51:12;11.17;;;6.73;;
29200;SDS011;16244;51.956;12.980;2023-12-04T00:53:40;9.77;;;6.97;;
29200;SDS011;16244;51.956;12.980;2023-12-04T00:56:09;11.40;;;7.53;;
29200;SDS011;16244;51.956;12.980;2023-12-04T00:58:37;14.87;;;8.00;;
29200;SDS011;16244;51.956;12.980;2023-12-04T01:01:05;13.77;;;7.80;;
29200;SDS011;16244;51.956;12.980;2023-12-04T01:03:33;15.33;;;8.77;;
29200;SDS011;16244;51.956;12.980;2023-12-04T01:06:00;17.10;;;7.90;;
29200;SDS011;16244;51.956;12.980;2023-12-04T01:08:28;16.47;;;9.00;;
29200;SDS011;16244;51.956;12.980;2023-12-04T01:10:55;17.30;;;9.03;;
29200;SDS011;16244;51.956;12.980;2023-12-04T01:13:24;16.33;;;8.60;;
29200;SDS011;16244;51.956;12.980;2023-12-04T01:15:51;15.20;;;7.83;;
29200;SDS011;16244;51.956;12.980;2023-12-04T01:18:19;13.97;;;8.07;;
29200;SDS011;16244;51.956;12.980;2023-12-04T01:20:46;14.80;;;9.07;;
29200;SDS011;16244;51.956;12.980;2023-12-04T01:23:14;12.37;;;7.70;;
29200;SDS011;16244;51.956;12.980;2023-12-04T01:25:46;12.30;;;7.27;;
29200;SDS011;16244;51.956;12.980;2023-12-04T01:28:13;17.37;;;8.70;;
29200;SDS011;16244;51.956;12.980;2023-12-04T01:30:42;12.93;;;9.07;;
29200;SDS011;16244;51.956;12.980;2023-12-04T01:33:10;15.57;;;7.90;;
29200;SDS011;16244;51.956;12.980;2023-12-04T01:35:37;18.20;;;9.03;;
29200;SDS011;16244;51.956;12.980;2023-12-04T01:38:04;12.00;;;7.63;;
29200;SDS011;16244;51.956;12.980;2023-12-04T01:40:32;11.13;;;7.73;;
29200;SDS011;16244;51.956;12.980;2023-12-04T01:43:00;10.47;;;6.97;;
29200;SDS011;16244;51.956;12.980;2023-12-04T01:45:27;14.67;;;7.07;;
29200;SDS011;16244;51.956;12.980;2023-12-04T01:47:56;14.07;;;8.00;;
29200;SDS011;16244;51.956;12.980;2023-12-04T01:50:24;10.77;;;7.07;;
29200;SDS011;16244;51.956;12.980;2023-12-04T01:52:52;16.23;;;6.80;;
29200;SDS011;16244;51.956;12.980;2023-12-04T01:55:20;13.30;;;6.30;;
29200;SDS011;16244;51.956;12.980;2023-12-04T01:57:48;12.03;;;7.63;;
29200;SDS011;16244;51.956;12.980;2023-12-04T02:00:16;13.17;;;7.07;;
29200;SDS011;16244;51.956;12.980;2023-12-04T02:02:46;14.20;;;7.20;;
29200;SDS011;16244;51.956;12.980;2023-12-04T02:05:15;18.13;;;7.70;;
29200;SDS011;16244;51.956;12.980;2023-12-04T02:07:44;15.33;;;7.70;;
29200;SDS011;16244;51.956;12.980;2023-12-04T02:10:11;15.07;;;7.80;;
29200;SDS011;16244;51.956;12.980;2023-12-04T02:12:39;9.17;;;7.07;;
29200;SDS011;16244;51.956;12.980;2023-12-04T02:15:07;9.30;;;6.40;;
29200;SDS011;16244;51.956;12.980;2023-12-04T02:17:35;14.77;;;7.20;;
29200;SDS011;16244;51.956;12.980;2023-12-04T02:20:04;13.03;;;7.03;;
29200;SDS011;16244;51.956;12.980;2023-12-04T02:22:34;7.90;;;5.83;;
29200;SDS011;16244;51.956;12.980;2023-12-04T02:25:03;12.07;;;8.03;;
29200;SDS011;16244;51.956;12.980;2023-12-04T02:27:33;10.63;;;6.83;;
29200;SDS011;16244;51.956;12.980;2023-12-04T02:30:05;13.80;;;7.83;;
29200;SDS011;16244;51.956;12.980;2023-12-04T02:32:35;9.60;;;6.30;;
29200;SDS011;16244;51.956;12.980;2023-12-04T02:35:09;14.43;;;7.83;;
29200;SDS011;16244;51.956;12.980;2023-12-04T02:37:38;12.00;;;6.93;;
29200;SDS011;16244;51.956;12.980;2023-12-04T02:40:09;13.60;;;7.93;;
29200;SDS011;16244;51.956;12.980;2023-12-04T02:42:38;10.50;;;6.33;;
29200;SDS011;16244;51.956;12.980;2023-12-04T02:45:06;14.47;;;8.80;;
29200;SDS011;16244;51.956;12.980;2023-12-04T02:47:34;13.50;;;7.17;;
29200;SDS011;16244;51.956;12.980;2023-12-04T02:50:02;12.80;;;7.30;;
29200;SDS011;16244;51.956;12.980;2023-12-04T02:52:30;10.97;;;8.00;;
29200;SDS011;16244;51.956;12.980;2023-12-04T02:54:57;12.20;;;7.40;;
29200;SDS011;16244;51.956;12.980;2023-12-04T02:57:26;19.60;;;8.10;;
29200;SDS011;16244;51.956;12.980;2023-12-04T02:59:53;11.27;;;7.63;;
29200;SDS011;16244;51.956;12.980;2023-12-04T03:02:21;14.53;;;7.77;;
29200;SDS011;16244;51.956;12.980;2023-12-04T03:04:48;10.43;;;6.57;;
29200;SDS011;16244;51.956;12.980;2023-12-04T03:07:16;14.53;;;7.00;;
29200;SDS011;16244;51.956;12.980;2023-12-04T03:09:45;9.67;;;6.20;;
29200;SDS011;16244;51.956;12.980;2023-12-04T03:12:13;13.73;;;7.60;;
29200;SDS011;16244;51.956;12.980;2023-12-04T03:14:42;13.30;;;7.40;;
29200;SDS011;16244;51.956;12.980;2023-12-04T03:17:09;12.30;;;7.50;;
29200;SDS011;16244;51.956;12.980;2023-12-04T03:19:37;11.43;;;6.87;;
29200;SDS011;16244;51.956;12.980;2023-12-04T03:22:04;12.70;;;7.37;;
29200;SDS011;16244;51.956;12.980;2023-12-04T03:24:32;10.50;;;6.53;;
29200;SDS011;16244;51.956;12.980;2023-12-04T03:26:59;12.47;;;7.40;;
29200;SDS011;16244;51.956;12.980;2023-12-04T03:29:26;16.30;;;7.17;;
29200;SDS011;16244;51.956;12.980;2023-12-04T03:31:55;12.47;;;7.90;;
29200;SDS011;16244;51.956;12.980;2023-12-04T03:34:23;10.93;;;7.07;;
29200;SDS011;16244;51.956;12.980;2023-12-04T03:36:50;12.93;;;7.40;;
29200;SDS011;16244;51.956;12.980;2023-12-04T03:39:18;11.10;;;7.67;;
29200;SDS011;16244;51.956;12.980;2023-12-04T03:41:46;13.20;;;7.10;;
29200;SDS011;16244;51.956;12.980;2023-12-04T03:44:13;18.27;;;7.87;;
29200;SDS011;16244;51.956;12.980;2023-12-04T03:46:41;11.10;;;6.83;;
29200;SDS011;16244;51.956;12.980;2023-12-04T03:49:10;7.53;;;6.07;;
29200;SDS011;16244;51.956;12.980;2023-12-04T03:51:37;13.97;;;7.83;;
29200;SDS011;16244;51.956;12.980;2023-12-04T03:54:05;9.17;;;6.00;;
29200;SDS011;16244;51.956;12.980;2023-12-04T03:56:32;10.33;;;6.93;;
29200;SDS011;16244;51.956;12.980;2023-12-04T03:58:59;10.73;;;6.87;;
29200;SDS011;16244;51.956;12.980;2023-12-04T04:01:27;7.43;;;5.70;;
29200;SDS011;16244;51.956;12.980;2023-12-04T04:03:55;9.63;;;6.50;;
29200;SDS011;16244;51.956;12.980;2023-12-04T04:06:24;7.33;;;5.60;;
29200;SDS011;16244;51.956;12.980;2023-12-04T04:08:51;12.33;;;7.17;;
29200;SDS011;16244;51.956;12.980;2023-12-04T04:11:19;10.90;;;6.37;;
29200;SDS011;16244;51.956;12.980;2023-12-04T04:13:46;7.17;;;6.20;;
29200;SDS011;16244;51.956;12.980;2023-12-04T04:16:14;8.90;;;5.60;;
29200;SDS011;16244;51.956;12.980;2023-12-04T04:18:42;10.73;;;6.60;;
29200;SDS011;16244;51.956;12.980;2023-12-04T04:21:10;9.30;;;5.70;;
29200;SDS011;16244;51.956;12.980;2023-12-04T04:23:39;12.97;;;7.20;;
29200;SDS011;16244;51.956;12.980;2023-12-04T04:26:06;12.23;;;5.40;;
29200;SDS011;16244;51.956;12.980;2023-12-04T04:28:34;7.10;;;5.03;;
29200;SDS011;16244;51.956;12.980;2023-12-04T04:31:01;5.87;;;4.93;;
29200;SDS011;16244;51.956;12.980;2023-12-04T04:33:29;13.37;;;6.70;;
29200;SDS011;16244;51.956;12.980;2023-12-04T04:35:56;11.53;;;6.53;;
29200;SDS011;16244;51.956;12.980;2023-12-04T04:38:24;7.23;;;5.87;;
29200;SDS011;16244;51.956;12.980;2023-12-04T04:40:53;11.20;;;6.57;;
29200;SDS011;16244;51.956;12.980;2023-12-04T04:43:20;13.17;;;6.70;;
29200;SDS011;16244;51.956;12.980;2023-12-04T04:45:48;10.93;;;7.17;;
29200;SDS011;16244;51.956;12.980;2023-12-04T04:48:15;9.07;;;5.33;;
29200;SDS011;16244;51.956;12.980;2023-12-04T04:50:42;8.47;;;5.80;;
29200;SDS011;16244;51.956;12.980;2023-12-04T04:53:10;9.83;;;6.23;;
29200;SDS011;16244;51.956;12.980;2023-12-04T04:55:37;10.73;;;5.90;;
29200;SDS011;16244;51.956;12.980;2023-12-04T04:58:07;13.00;;;6.30;;
29200;SDS011;16244;51.956;12.980;2023-12-04T05:00:34;10.00;;;5.67;;
29200;SDS011;16244;51.956;12.980;2023-12-04T05:03:01;10.80;;;7.10;;
29200;SDS011;16244;51.956;12.980;2023-12-04T05:05:29;11.20;;;6.70;;
29200;SDS011;16244;51.956;12.980;2023-12-04T05:07:56;12.33;;;6.07;;
29200;SDS011;16244;51.956;12.980;2023-12-04T05:10:24;10.13;;;6.57;;
29200;SDS011;16244;51.956;12.980;2023-12-04T05:12:51;9.60;;;6.33;;
29200;SDS011;16244;51.956;12.980;2023-12-04T05:15:20;9.53;;;5.70;;
29200;SDS011;16244;51.956;12.980;2023-12-04T05:17:48;7.03;;;5.80;;
29200;SDS011;16244;51.956;12.980;2023-12-04T05:20:17;9.57;;;5.77;;
29200;SDS011;16244;51.956;12.980;2023-12-04T05:22:44;7.73;;;5.73;;
29200;SDS011;16244;51.956;12.980;2023-12-04T05:25:12;7.10;;;5.80;;
29200;SDS011;16244;51.956;12.980;2023-12-04T05:27:39;10.50;;;5.50;;
29200;SDS011;16244;51.956;12.980;2023-12-04T05:30:07;8.07;;;6.20;;
29200;SDS011;16244;51.956;12.980;2023-12-04T05:32:36;10.60;;;6.27;;
29200;SDS011;16244;51.956;12.980;2023-12-04T05:35:04;10.30;;;6.50;;
29200;SDS011;16244;51.956;12.980;2023-12-04T05:37:32;8.00;;;5.53;;
29200;SDS011;16244;51.956;12.980;2023-12-04T05:40:00;9.13;;;5.60;;
29200;SDS011;16244;51.956;12.980;2023-12-04T05:42:29;5.70;;;4.80;;
29200;SDS011;16244;51.956;12.980;2023-12-04T05:44:56;14.13;;;5.50;;
29200;SDS011;16244;51.956;12.980;2023-12-04T05:47:25;9.97;;;6.03;;
29200;SDS011;16244;51.956;12.980;2023-12-04T05:49:54;6.60;;;4.80;;
29200;SDS011;16244;51.956;12.980;2023-12-04T05:52:21;9.70;;;5.10;;
29200;SDS011;16244;51.956;12.980;2023-12-04T05:54:49;16.47;;;6.13;;
29200;SDS011;16244;51.956;12.980;2023-12-04T05:57:17;9.60;;;6.40;;
29200;SDS011;16244;51.956;12.980;2023-12-04T05:59:44;7.27;;;5.00;;
29200;SDS011;16244;51.956;12.980;2023-12-04T06:02:12;10.20;;;6.10;;
29200;SDS011;16244;51.956;12.980;2023-12-04T06:04:41;8.27;;;5.60;;
29200;SDS011;16244;51.956;12.980;2023-12-04T06:07:10;5.33;;;4.60;;
29200;SDS011;16244;51.956;12.980;2023-12-04T06:09:37;5.83;;;5.03;;
29200;SDS011;16244;51.956;12.980;2023-12-04T06:12:05;7.03;;;5.50;;
29200;SDS011;16244;51.956;12.980;2023-12-04T06:14:35;8.10;;;6.13;;
29200;SDS011;16244;51.956;12.980;2023-12-04T06:17:03;5.23;;;4.80;;
29200;SDS011;16244;51.956;12.980;2023-12-04T06:19:32;8.57;;;6.17;;
29200;SDS011;16244;51.956;12.980;2023-12-04T06:21:59;9.07;;;6.37;;
29200;SDS011;16244;51.956;12.980;2023-12-04T06:24:28;9.00;;;6.33;;
29200;SDS011;16244;51.956;12.980;2023-12-04T06:26:57;7.50;;;5.30;;
29200;SDS011;16244;51.956;12.980;2023-12-04T06:29:25;8.67;;;5.70;;
29200;SDS011;16244;51.956;12.980;2023-12-04T06:31:53;6.00;;;5.47;;
29200;SDS011;16244;51.956;12.980;2023-12-04T06:34:21;8.50;;;5.10;;
29200;SDS011;16244;51.956;12.980;2023-12-04T06:36:50;12.40;;;5.97;;
29200;SDS011;16244;51.956;12.980;2023-12-04T06:39:18;7.30;;;6.57;;
29200;SDS011;16244;51.956;12.980;2023-12-04T06:41:48;11.10;;;6.73;;
29200;SDS011;16244;51.956;12.980;2023-12-04T06:44:16;9.23;;;6.47;;
29200;SDS011;16244;51.956;12.980;2023-12-04T06:46:44;7.73;;;5.77;;
29200;SDS011;16244;51.956;12.980;2023-12-04T06:49:16;7.63;;;5.10;;
29200;SDS011;16244;51.956;12.980;2023-12-04T06:51:44;9.73;;;6.50;;
29200;SDS011;16244;51.956;12.980;2023-12-04T06:54:12;9.57;;;4.83;;
29200;SDS011;16244;51.956;12.980;2023-12-04T06:56:39;7.70;;;6.40;;
29200;SDS011;16244;51.956;12.980;2023-12-04T06:59:08;6.70;;;5.47;;
29200;SDS011;16244;51.956;12.980;2023-12-04T07:01:35;7.53;;;5.27;;
29200;SDS011;16244;51.956;12.980;2023-12-04T07:04:03;10.53;;;6.23;;
29200;SDS011;16244;51.956;12.980;2023-12-04T07:06:35;8.73;;;6.17;;
29200;SDS011;16244;51.956;12.980;2023-12-04T07:09:03;7.73;;;5.67;;
29200;SDS011;16244;51.956;12.980;2023-12-04T07:11:31;7.20;;;5.87;;
29200;SDS011;16244;51.956;12.980;2023-12-04T07:13:59;5.97;;;5.47;;
29200;SDS011;16244;51.956;12.980;2023-12-04T07:16:27;14.30;;;6.20;;
29200;SDS011;16244;51.956;12.980;2023-12-04T07:18:55;6.77;;;5.00;;
29200;SDS011;16244;51.956;12.980;2023-12-04T07:21:22;8.27;;;5.40;;
29200;SDS011;16244;51.956;12.980;2023-12-04T07:23:51;7.70;;;5.67;;
29200;SDS011;16244;51.956;12.980;2023-12-04T07:26:19;5.80;;;5.03;;
29200;SDS011;16244;51.956;12.980;2023-12-04T07:28:47;11.83;;;6.07;;
29200;SDS011;16244;51.956;12.980;2023-12-04T07:31:14;7.57;;;5.43;;
29200;SDS011;16244;51.956;12.980;2023-12-04T07:33:43;5.37;;;4.73;;
29200;SDS011;16244;51.956;12.980;2023-12-04T07:36:10;8.80;;;6.13;;
29200;SDS011;16244;51.956;12.980;2023-12-04T07:38:38;7.40;;;5.13;;
29200;SDS011;16244;51.956;12.980;2023-12-04T07:41:05;6.37;;;5.10;;
29200;SDS011;16244;51.956;12.980;2023-12-04T07:43:33;7.20;;;4.93;;
29200;SDS011;16244;51.956;12.980;2023-12-04T07:46:01;6.70;;;6.07;;
29200;SDS011;16244;51.956;12.980;2023-12-04T07:48:29;6.27;;;5.30;;
29200;SDS011;16244;51.956;12.980;2023-12-04T07:50:58;8.83;;;5.60;;
29200;SDS011;16244;51.956;12.980;2023-12-04T07:53:25;9.03;;;5.37;;
29200;SDS011;16244;51.956;12.980;2023-12-04T07:55:53;6.50;;;5.73;;
29200;SDS011;16244;51.956;12.980;2023-12-04T07:58:20;6.20;;;5.70;;
29200;SDS011;16244;51.956;12.980;2023-12-04T08:00:48;9.20;;;6.03;;
29200;SDS011;16244;51.956;12.980;2023-12-04T08:03:16;5.67;;;5.13;;
29200;SDS011;16244;51.956;12.980;2023-12-04T08:05:43;5.50;;;4.83;;
29200;SDS011;16244;51.956;12.980;2023-12-04T08:08:12;5.27;;;4.00;;
29200;SDS011;16244;51.956;12.980;2023-12-04T08:10:40;5.20;;;4.47;;
29200;SDS011;16244;51.956;12.980;2023-12-04T08:13:08;6.07;;;4.30;;
29200;SDS011;16244;51.956;12.980;2023-12-04T08:15:35;6.10;;;5.30;;
29200;SDS011;16244;51.956;12.980;2023-12-04T08:18:03;5.73;;;4.97;;
29200;SDS011;16244;51.956;12.980;2023-12-04T08:20:30;8.37;;;5.07;;
29200;SDS011;16244;51.956;12.980;2023-12-04T08:22:58;5.83;;;5.33;;
29200;SDS011;16244;51.956;12.980;2023-12-04T08:25:27;7.53;;;5.40;;
29200;SDS011;16244;51.956;12.980;2023-12-04T08:27:55;8.03;;;5.27;;
29200;SDS011;16244;51.956;12.980;2023-12-04T08:30:24;7.20;;;5.47;;
29200;SDS011;16244;51.956;12.980;2023-12-04T08:32:53;5.63;;;4.63;;
29200;SDS011;16244;51.956;12.980;2023-12-04T08:35:20;7.10;;;5.30;;
29200;SDS011;16244;51.956;12.980;2023-12-04T08:37:48;7.17;;;4.90;;
29200;SDS011;16244;51.956;12.980;2023-12-04T08:40:15;5.40;;;4.90;;
29200;SDS011;16244;51.956;12.980;2023-12-04T08:42:44;6.97;;;5.80;;
29200;SDS011;16244;51.956;12.980;2023-12-04T08:45:12;6.23;;;5.60;;
29200;SDS011;16244;51.956;12.980;2023-12-04T08:47:39;9.07;;;5.37;;
29200;SDS011;16244;51.956;12.980;2023-12-04T08:50:07;6.63;;;4.93;;
29200;SDS011;16244;51.956;12.980;2023-12-04T08:52:35;10.40;;;6.47;;
29200;SDS011;16244;51.956;12.980;2023-12-04T08:55:03;9.50;;;5.80;;
29200;SDS011;16244;51.956;12.980;2023-12-04T08:57:33;5.73;;;5.13;;
29200;SDS011;16244;51.956;12.980;2023-12-04T09:00:02;6.47;;;5.10;;
29200;SDS011;16244;51.956;12.980;2023-12-04T09:02:30;11.37;;;5.77;;
29200;SDS011;16244;51.956;12.980;2023-12-04T09:04:58;7.13;;;6.37;;
29200;SDS011;16244;51.956;12.980;2023-12-04T09:07:25;8.03;;;6.17;;
29200;SDS011;16244;51.956;12.980;2023-12-04T09:09:53;7.23;;;5.70;;
29200;SDS011;16244;51.956;12.980;2023-12-04T09:12:20;7.53;;;4.97;;
29200;SDS011;16244;51.956;12.980;2023-12-04T09:14:48;7.53;;;6.17;;
29200;SDS011;16244;51.956;12.980;2023-12-04T09:17:16;8.80;;;5.30;;
29200;SDS011;16244;51.956;12.980;2023-12-04T09:19:44;8.30;;;5.70;;
29200;SDS011;16244;51.956;12.980;2023-12-04T09:22:11;7.07;;;5.37;;
29200;SDS011;16244;51.956;12.980;2023-12-04T09:24:39;5.00;;;4.50;;
29200;SDS011;16244;51.956;12.980;2023-12-04T09:27:06;9.37;;;5.93;;
29200;SDS011;16244;51.956;12.980;2023-12-04T09:29:34;12.80;;;5.40;;
29200;SDS011;16244;51.956;12.980;2023-12-04T09:32:01;5.60;;;5.10;;
29200;SDS011;16244;51.956;12.980;2023-12-04T09:34:30;7.17;;;5.97;;
29200;SDS011;16244;51.956;12.980;2023-12-04T09:36:57;6.63;;;5.17;;
29200;SDS011;16244;51.956;12.980;2023-12-04T09:39:27;6.13;;;5.40;;
29200;SDS011;16244;51.956;12.980;2023-12-04T09:41:55;7.43;;;5.17;;
29200;SDS011;16244;51.956;12.980;2023-12-04T09:44:25;8.87;;;6.60;;
29200;SDS011;16244;51.956;12.980;2023-12-04T09:46:55;5.57;;;4.67;;
29200;SDS011;16244;51.956;12.980;2023-12-04T09:49:22;6.87;;;5.47;;
29200;SDS011;16244;51.956;12.980;2023-12-04T09:51:53;6.03;;;4.80;;
29200;SDS011;16244;51.956;12.980;2023-12-04T09:54:20;6.27;;;4.90;;
29200;SDS011;16244;51.956;12.980;2023-12-04T09:56:48;6.63;;;5.97;;
29200;SDS011;16244;51.956;12.980;2023-12-04T09:59:16;5.57;;;5.07;;
29200;SDS011;16244;51.956;12.980;2023-12-04T10:01:44;7.67;;;5.40;;
29200;SDS011;16244;51.956;12.980;2023-12-04T10:04:13;8.80;;;4.97;;
29200;SDS011;16244;51.956;12.980;2023-12-04T10:06:40;6.10;;;5.50;;
29200;SDS011;16244;51.956;12.980;2023-12-04T10:09:10;7.67;;;4.70;;
29200;SDS011;16244;51.956;12.980;2023-12-04T10:11:39;8.70;;;5.17;;
29200;SDS011;16244;51.956;12.980;2023-12-04T10:14:14;10.80;;;6.23;;
29200;SDS011;16244;51.956;12.980;2023-12-04T10:16:42;5.57;;;4.87;;
29200;SDS011;16244;51.956;12.980;2023-12-04T10:19:16;6.33;;;4.83;;
29200;SDS011;16244;51.956;12.980;2023-12-04T10:21:46;7.43;;;5.27;;
29200;SDS011;16244;51.956;12.980;2023-12-04T10:24:30;6.70;;;5.70;;
29200;SDS011;16244;51.956;12.980;2023-12-04T10:26:59;6.57;;;5.47;;
29200;SDS011;16244;51.956;12.980;2023-12-04T10:29:27;9.03;;;4.50;;
29200;SDS011;16244;51.956;12.980;2023-12-04T10:31:57;6.20;;;5.60;;
29200;SDS011;16244;51.956;12.980;2023-12-04T10:34:26;3.77;;;3.50;;
29200;SDS011;16244;51.956;12.980;2023-12-04T10:36:53;5.93;;;4.93;;
29200;SDS011;16244;51.956;12.980;2023-12-04T10:39:24;7.93;;;4.90;;
29200;SDS011;16244;51.956;12.980;2023-12-04T10:42:02;6.23;;;5.10;;
29200;SDS011;16244;51.956;12.980;2023-12-04T10:44:32;7.60;;;5.87;;
29200;SDS011;16244;51.956;12.980;2023-12-04T10:47:00;8.03;;;4.73;;
29200;SDS011;16244;51.956;12.980;2023-12-04T10:49:28;9.70;;;5.60;;
29200;SDS011;16244;51.956;12.980;2023-12-04T10:51:55;5.00;;;4.60;;
29200;SDS011;16244;51.956;12.980;2023-12-04T10:54:25;5.90;;;4.60;;
29200;SDS011;16244;51.956;12.980;2023-12-04T10:56:53;7.00;;;4.67;;
29200;SDS011;16244;51.956;12.980;2023-12-04T10:59:30;6.30;;;5.17;;
29200;SDS011;16244;51.956;12.980;2023-12-04T11:02:03;7.43;;;5.03;;
29200;SDS011;16244;51.956;12.980;2023-12-04T11:04:34;6.30;;;5.00;;
29200;SDS011;16244;51.956;12.980;2023-12-04T11:07:03;6.80;;;5.60;;
29200;SDS011;16244;51.956;12.980;2023-12-04T11:09:32;4.27;;;4.07;;
29200;SDS011;16244;51.956;12.980;2023-12-04T11:12:03;4.13;;;3.83;;
29200;SDS011;16244;51.956;12.980;2023-12-04T11:14:37;4.70;;;4.20;;
29200;SDS011;16244;51.956;12.980;2023-12-04T11:17:10;5.70;;;5.10;;
29200;SDS011;16244;51.956;12.980;2023-12-04T11:19:43;7.37;;;4.63;;
29200;SDS011;16244;51.956;12.980;2023-12-04T11:22:16;7.73;;;4.90;;
29200;SDS011;16244;51.956;12.980;2023-12-04T11:24:46;5.63;;;4.87;;
29200;SDS011;16244;51.956;12.980;2023-12-04T11:27:14;8.03;;;4.50;;
29200;SDS011;16244;51.956;12.980;2023-12-04T11:29:44;3.57;;;3.33;;
29200;SDS011;16244;51.956;12.980;2023-12-04T11:32:14;4.40;;;4.00;;
29200;SDS011;16244;51.956;12.980;2023-12-04T11:34:47;4.63;;;4.20;;
29200;SDS011;16244;51.956;12.980;2023-12-04T11:37:15;5.00;;;4.50;;
29200;SDS011;16244;51.956;12.980;2023-12-04T11:39:45;4.80;;;4.40;;
29200;SDS011;16244;51.956;12.980;2023-12-04T11:42:14;5.23;;;4.73;;
29200;SDS011;16244;51.956;12.980;2023-12-04T11:44:48;3.97;;;3.60;;
29200;SDS011;16244;51.956;12.980;2023-12-04T11:47:16;3.90;;;3.67;;
29200;SDS011;16244;51.956;12.980;2023-12-04T11:49:43;5.10;;;4.33;;
29200;SDS011;16244;51.956;12.980;2023-12-04T11:52:12;4.43;;;4.07;;
29200;SDS011;16244;51.956;12.980;2023-12-04T11:54:55;4.00;;;3.70;;
29200;SDS011;16244;51.956;12.980;2023-12-04T11:57:24;9.03;;;5.50;;
29200;SDS011;16244;51.956;12.980;2023-12-04T12:00:05;15.13;;;4.40;;
29200;SDS011;16244;51.956;12.980;2023-12-04T12:02:37;3.60;;;3.37;;
29200;SDS011;16244;51.956;12.980;2023-12-04T12:05:06;5.60;;;4.33;;
29200;SDS011;16244;51.956;12.980;2023-12-04T12:07:34;6.60;;;5.20;;
29200;SDS011;16244;51.956;12.980;2023-12-04T12:10:02;4.10;;;3.73;;
29200;SDS011;16244;51.956;12.980;2023-12-04T12:12:30;4.80;;;4.43;;
29200;SDS011;16244;51.956;12.980;2023-12-04T12:14:59;3.93;;;3.37;;
29200;SDS011;16244;51.956;12.980;2023-12-04T12:17:28;5.00;;;4.60;;
29200;SDS011;16244;51.956;12.980;2023-12-04T12:19:55;3.83;;;3.53;;
29200;SDS011;16244;51.956;12.980;2023-12-04T12:22:23;3.60;;;3.33;;
29200;SDS011;16244;51.956;12.980;2023-12-04T12:24:51;4.70;;;4.40;;
29200;SDS011;16244;51.956;12.980;2023-12-04T12:27:18;3.73;;;3.53;;
29200;SDS011;16244;51.956;12.980;2023-12-04T12:29:46;5.30;;;4.10;;
29200;SDS011;16244;51.956;12.980;2023-12-04T12:32:13;4.80;;;4.47;;
29200;SDS011;16244;51.956;12.980;2023-12-04T12:34:43;4.23;;;3.83;;
29200;SDS011;16244;51.956;12.980;2023-12-04T12:37:10;3.87;;;3.57;;
29200;SDS011;16244;51.956;12.980;2023-12-04T12:39:37;5.53;;;3.73;;
29200;SDS011;16244;51.956;12.980;2023-12-04T12:42:06;4.40;;;4.10;;
29200;SDS011;16244;51.956;12.980;2023-12-04T12:44:37;4.17;;;3.67;;
29200;SDS011;16244;51.956;12.980;2023-12-04T12:47:06;4.87;;;3.97;;
29200;SDS011;16244;51.956;12.980;2023-12-04T12:49:34;3.90;;;3.33;;
29200;SDS011;16244;51.956;12.980;2023-12-04T12:52:04;3.53;;;3.27;;
29200;SDS011;16244;51.956;12.980;2023-12-04T12:54:36;4.90;;;4.50;;
29200;SDS011;16244;51.956;12.980;2023-12-04T12:57:04;3.47;;;3.30;;
29200;SDS011;16244;51.956;12.980;2023-12-04T12:59:33;3.60;;;3.30;;
29200;SDS011;16244;51.956;12.980;2023-12-04T13:02:00;3.60;;;3.40;;
29200;SDS011;16244;51.956;12.980;2023-12-04T13:04:33;4.30;;;3.90;;
29200;SDS011;16244;51.956;12.980;2023-12-04T13:07:01;4.87;;;4.37;;
29200;SDS011;16244;51.956;12.980;2023-12-04T13:09:31;4.27;;;3.97;;
29200;SDS011;16244;51.956;12.980;2023-12-04T13:11:59;4.00;;;3.70;;
29200;SDS011;16244;51.956;12.980;2023-12-04T13:14:26;3.53;;;3.33;;
29200;SDS011;16244;51.956;12.980;2023-12-04T13:16:54;4.63;;;4.30;;
29200;SDS011;16244;51.956;12.980;2023-12-04T13:19:21;4.80;;;4.40;;
29200;SDS011;16244;51.956;12.980;2023-12-04T13:21:49;3.40;;;3.10;;
29200;SDS011;16244;51.956;12.980;2023-12-04T13:24:17;3.83;;;3.50;;
29200;SDS011;16244;51.956;12.980;2023-12-04T13:26:46;4.83;;;4.10;;
29200;SDS011;16244;51.956;12.980;2023-12-04T13:29:13;4.30;;;3.93;;
29200;SDS011;16244;51.956;12.980;2023-12-04T13:31:43;4.70;;;4.00;;
29200;SDS011;16244;51.956;12.980;2023-12-04T13:34:12;5.10;;;4.70;;
29200;SDS011;16244;51.956;12.980;2023-12-04T13:36:39;3.90;;;3.67;;
29200;SDS011;16244;51.956;12.980;2023-12-04T13:39:07;4.00;;;3.67;;
29200;SDS011;16244;51.956;12.980;2023-12-04T13:41:43;3.47;;;3.37;;
29200;SDS011;16244;51.956;12.980;2023-12-04T13:44:30;4.13;;;3.80;;
29200;SDS011;16244;51.956;12.980;2023-12-04T13:46:59;6.17;;;4.17;;
29200;SDS011;16244;51.956;12.980;2023-12-04T13:49:26;3.73;;;3.50;;
29200;SDS011;16244;51.956;12.980;2023-12-04T13:51:54;3.97;;;3.60;;
29200;SDS011;16244;51.956;12.980;2023-12-04T13:54:21;4.63;;;3.57;;
29200;SDS011;16244;51.956;12.980;2023-12-04T13:57:00;3.13;;;2.93;;
29200;SDS011;16244;51.956;12.980;2023-12-04T13:59:31;3.87;;;3.67;;
29200;SDS011;16244;51.956;12.980;2023-12-04T14:02:00;3.00;;;2.90;;
29200;SDS011;16244;51.956;12.980;2023-12-04T14:04:30;3.63;;;3.43;;
29200;SDS011;16244;51.956;12.980;2023-12-04T14:06:57;3.10;;;2.90;;
29200;SDS011;16244;51.956;12.980;2023-12-04T14:09:25;3.30;;;3.10;;
29200;SDS011;16244;51.956;12.980;2023-12-04T14:11:52;4.07;;;3.87;;
29200;SDS011;16244;51.956;12.980;2023-12-04T14:14:20;3.87;;;3.67;;
29200;SDS011;16244;51.956;12.980;2023-12-04T14:16:48;4.10;;;3.80;;
29200;SDS011;16244;51.956;12.980;2023-12-04T14:19:16;3.90;;;3.70;;
29200;SDS011;16244;51.956;12.980;2023-12-04T14:21:46;5.00;;;3.90;;
29200;SDS011;16244;51.956;12.980;2023-12-04T14:24:14;3.53;;;3.23;;
29200;SDS011;16244;51.956;12.980;2023-12-04T14:26:42;4.17;;;3.87;;
29200;SDS011;16244;51.956;12.980;2023-12-04T14:29:10;5.07;;;3.93;;
29200;SDS011;16244;51.956;12.980;2023-12-04T14:31:39;3.47;;;3.30;;
29200;SDS011;16244;51.956;12.980;2023-12-04T14:34:08;6.40;;;3.50;;
29200;SDS011;16244;51.956;12.980;2023-12-04T14:36:35;2.83;;;2.73;;
29200;SDS011;16244;51.956;12.980;2023-12-04T14:39:03;4.10;;;3.70;;